Time;durP1;ratioP1;P1;durP2;ratioP2;P2;SDS_P1;SDS_P2;PMS_P1;PMS_P2;Temp;Humidity;BMP_temperature;BMP_pressure;BME280_temperature;BME280_humidity;BME280_pressure;Samples;Min_cycle;Max_cycle;Signal;HPM_P1;HPM_P2
2021/04/26 00:01:04;;;;;;;5.85;1.23;;;4.40;99.90;;;;;;6180066;23;20440;-85
2021/04/26 00:03:31;;;;;;;11.52;1.73;;;4.50;99.90;;;;;;6179764;23;20024;-85
2021/04/26 00:05:57;;;;;;;2.28;1.08;;;4.40;99.90;;;;;;6180940;23;20796;-85
2021/04/26 00:08:23;;;;;;;10.70;1.17;;;4.40;99.90;;;;;;6179916;23;20017;-84
2021/04/26 00:10:48;;;;;;;8.32;1.40;;;4.40;99.90;;;;;;6130022;23;20017;-86
2021/04/26 00:13:14;;;;;;;13.73;1.50;;;4.40;99.90;;;;;;6130083;23;20020;-85
2021/04/26 00:15:40;;;;;;;5.10;1.00;;;4.40;99.90;;;;;;6129642;23;20013;-85
2021/04/26 00:18:12;;;;;;;8.10;1.23;;;4.40;99.90;;;;;;6166212;23;20017;-85
2021/04/26 00:20:39;;;;;;;10.00;1.42;;;4.40;99.90;;;;;;6181786;23;20837;-84
2021/04/26 00:23:05;;;;;;;5.97;2.13;;;4.40;99.90;;;;;;6155597;23;20021;-85
2021/04/26 00:25:31;;;;;;;9.05;1.30;;;4.40;99.90;;;;;;6155236;23;20496;-85
2021/04/26 00:27:57;;;;;;;13.30;2.20;;;4.40;99.90;;;;;;6182420;23;20021;-86
2021/04/26 00:30:24;;;;;;;5.68;1.48;;;4.40;99.90;;;;;;6181605;23;20607;-85
2021/04/26 00:32:51;;;;;;;5.30;1.42;;;4.30;99.90;;;;;;6182367;23;20016;-85
2021/04/26 00:35:18;;;;;;;5.95;1.42;;;4.30;99.90;;;;;;6131169;23;20099;-85
2021/04/26 00:37:45;;;;;;;11.52;1.50;;;4.30;99.90;;;;;;6180954;23;20341;-84
2021/04/26 00:40:11;;;;;;;8.60;1.55;;;4.30;99.90;;;;;;6156220;23;20013;-85
2021/04/26 00:42:38;;;;;;;8.50;1.58;;;4.30;99.90;;;;;;6154836;23;20028;-85
2021/04/26 00:45:10;;;;;;;5.28;2.05;;;4.20;99.90;;;;;;6165471;23;20071;-85
2021/04/26 00:47:38;;;;;;;5.30;1.75;;;4.20;99.90;;;;;;6164636;23;20013;-84
2021/04/26 00:50:07;;;;;;;9.68;1.42;;;4.20;99.90;;;;;;6181837;23;20025;-85
2021/04/26 00:52:35;;;;;;;8.65;1.23;;;4.20;99.90;;;;;;6180948;23;20017;-84
2021/04/26 00:55:02;;;;;;;14.73;1.50;;;4.10;99.90;;;;;;6182237;23;20025;-85
2021/04/26 00:57:28;;;;;;;5.68;0.98;;;4.10;99.90;;;;;;6180972;23;20101;-85
2021/04/26 00:59:54;;;;;;;11.32;2.20;;;4.10;99.90;;;;;;6182360;23;20466;-85
2021/04/26 01:02:20;;;;;;;6.85;1.23;;;4.10;99.90;;;;;;6155945;23;20021;-86
2021/04/26 01:04:46;;;;;;;7.78;1.83;;;4.00;99.90;;;;;;6155113;23;20048;-85
2021/04/26 01:07:12;;;;;;;9.65;2.03;;;4.00;99.90;;;;;;6131358;23;20017;-86
2021/04/26 01:09:37;;;;;;;14.80;1.80;;;4.00;99.90;;;;;;6154453;23;20020;-86
2021/04/26 01:12:15;;;;;;;7.05;1.23;;;3.90;99.90;;;;;;6182066;23;20021;-86
2021/04/26 01:14:47;;;;;;;20.08;1.98;;;3.90;99.90;;;;;;6164599;23;20021;-86
2021/04/26 01:17:23;;;;;;;10.48;1.73;;;3.80;99.90;;;;;;6191707;23;20013;-87
2021/04/26 01:20:26;;;;;;;5.57;1.30;;;3.80;99.90;;;;;;6180838;23;20028;-86
2021/04/26 01:23:09;;;;;;;5.15;1.70;;;3.70;99.90;;;;;;6181539;23;20024;-86
2021/04/26 01:25:38;;;;;;;4.13;1.17;;;3.70;99.90;;;;;;6181015;23;20037;-86
2021/04/26 01:28:16;;;;;;;8.80;1.40;;;3.70;99.90;;;;;;6155064;23;20024;-86
2021/04/26 01:30:57;;;;;;;9.48;1.55;;;3.60;99.90;;;;;;6191038;23;20455;-86
2021/04/26 01:33:33;;;;;;;5.97;1.00;;;3.60;99.90;;;;;;6158304;23;20013;-86
2021/04/26 01:36:03;;;;;;;9.75;1.30;;;3.50;99.90;;;;;;6191482;23;20024;-86
2021/04/26 01:38:36;;;;;;;8.37;1.57;;;3.50;99.90;;;;;;6154592;23;20052;-84
2021/04/26 01:41:02;;;;;;;10.38;1.75;;;3.40;99.90;;;;;;6181616;23;20253;-86
2021/04/26 01:43:30;;;;;;;5.13;1.40;;;3.20;99.90;;;;;;6180472;23;20021;-85
2021/04/26 01:46:00;;;;;;;12.48;2.50;;;3.20;99.90;;;;;;6181505;23;20063;-86
2021/04/26 01:48:28;;;;;;;7.97;1.70;;;3.20;99.90;;;;;;6164491;23;20017;-85
2021/04/26 01:50:56;;;;;;;13.18;1.90;;;3.10;99.90;;;;;;6182053;23;20036;-87
2021/04/26 01:53:23;;;;;;;13.75;2.33;;;3.10;99.90;;;;;;6181190;23;20101;-86
2021/04/26 01:55:50;;;;;;;12.27;1.70;;;3.00;99.90;;;;;;6180903;23;20017;-86
2021/04/26 01:58:17;;;;;;;9.63;1.77;;;2.90;99.90;;;;;;6181276;23;20020;-86
2021/04/26 02:00:43;;;;;;;12.50;1.60;;;2.90;99.90;;;;;;6180381;23;20114;-85
2021/04/26 02:03:10;;;;;;;13.27;1.83;;;2.90;99.90;;;;;;6154893;23;20017;-87
2021/04/26 02:05:36;;;;;;;10.98;1.67;;;2.80;99.90;;;;;;6154181;23;20028;-87
2021/04/26 02:08:04;;;;;;;7.55;1.50;;;2.70;99.90;;;;;;6154978;23;20084;-86
2021/04/26 02:10:30;;;;;;;14.68;1.80;;;2.70;99.90;;;;;;6154027;23;20025;-85
2021/04/26 02:12:57;;;;;;;14.75;1.70;;;2.60;99.90;;;;;;6155434;23;20443;-86
2021/04/26 02:15:25;;;;;;;11.15;2.00;;;2.60;99.90;;;;;;6155142;23;20699;-86
2021/04/26 02:17:51;;;;;;;16.77;2.33;;;2.50;99.90;;;;;;6130050;23;20887;-86
2021/04/26 02:20:18;;;;;;;13.18;1.52;;;2.50;99.90;;;;;;6181667;23;20525;-86
2021/04/26 02:22:51;;;;;;;8.88;1.60;;;2.40;99.90;;;;;;6154147;23;20017;-86
2021/04/26 02:25:18;;;;;;;12.65;2.25;;;2.50;99.90;;;;;;6164854;23;20394;-86
2021/04/26 02:27:45;;;;;;;13.52;2.20;;;2.60;99.90;;;;;;6180317;23;20017;-86
2021/04/26 02:30:12;;;;;;;22.77;3.17;;;2.70;99.90;;;;;;6181323;23;20340;-87
2021/04/26 02:33:01;;;;;;;18.83;2.05;;;2.70;99.90;;;;;;6180212;23;20017;-86
2021/04/26 02:35:35;;;;;;;15.57;2.17;;;2.80;99.90;;;;;;6154945;23;20021;-86
2021/04/26 02:38:05;;;;;;;16.95;2.20;;;2.70;99.90;;;;;;6154959;23;20021;-86
2021/04/26 02:40:35;;;;;;;5.95;1.40;;;2.70;99.90;;;;;;6153965;23;20016;-86
2021/04/26 02:43:01;;;;;;;;;;;2.70;99.90;;;;;;6187663;23;20023;-86
2021/04/26 02:45:31;;;;;;;15.52;2.63;;;2.60;99.90;;;;;;6181353;23;19927;-86
2021/04/26 02:47:57;;;;;;;14.10;1.98;;;2.60;99.90;;;;;;6154673;23;20028;-86
2021/04/26 02:50:25;;;;;;;13.93;1.98;;;2.50;99.90;;;;;;6154540;23;20362;-86
2021/04/26 02:52:52;;;;;;;11.98;2.13;;;2.50;99.90;;;;;;6154038;23;20092;-86
2021/04/26 02:55:20;;;;;;;11.48;2.40;;;2.40;99.90;;;;;;6154361;23;20021;-86
2021/04/26 02:57:48;;;;;;;10.13;1.80;;;2.50;99.90;;;;;;6180186;23;20021;-86
2021/04/26 03:00:18;;;;;;;12.90;2.03;;;2.50;99.90;;;;;;6180719;23;20100;-86
2021/04/26 03:02:45;;;;;;;4.97;1.50;;;2.40;99.90;;;;;;6180094;23;20017;-86
2021/04/26 03:05:12;;;;;;;7.43;1.77;;;2.40;99.90;;;;;;6180549;23;20280;-86
2021/04/26 03:07:39;;;;;;;10.35;1.42;;;2.10;99.90;;;;;;6179754;23;20052;-86
2021/04/26 03:10:07;;;;;;;4.97;1.40;;;2.00;99.90;;;;;;6181284;23;20020;-86
2021/04/26 03:12:34;;;;;;;4.60;1.10;;;1.80;99.90;;;;;;6180103;23;20052;-85
2021/04/26 03:15:03;;;;;;;12.90;1.80;;;1.70;99.90;;;;;;6154266;23;20340;-86
2021/04/26 03:17:29;;;;;;;5.97;2.10;;;1.60;99.90;;;;;;6181135;23;20451;-86
2021/04/26 03:19:56;;;;;;;8.75;1.67;;;1.50;99.90;;;;;;6154013;23;20069;-86
2021/04/26 03:22:24;;;;;;;9.43;1.88;;;1.50;99.90;;;;;;6181123;23;20027;-87
2021/04/26 03:24:50;;;;;;;11.63;1.88;;;1.40;99.90;;;;;;6179904;23;20021;-87
2021/04/26 03:27:19;;;;;;;10.75;2.03;;;1.40;99.90;;;;;;6129999;23;20027;-86
2021/04/26 03:29:49;;;;;;;13.10;2.22;;;1.40;99.90;;;;;;6179867;23;20059;-86
2021/04/26 03:32:15;;;;;;;7.15;1.98;;;1.30;99.90;;;;;;6181126;23;20017;-87
2021/04/26 03:34:43;;;;;;;10.52;2.10;;;1.30;99.90;;;;;;6179881;23;20025;-85
2021/04/26 03:37:14;;;;;;;9.15;2.20;;;1.30;99.90;;;;;;6181044;23;20021;-86
2021/04/26 03:39:40;;;;;;;9.93;2.25;;;1.30;99.90;;;;;;6189952;23;20021;-86
2021/04/26 03:42:06;;;;;;;12.02;2.60;;;1.30;99.90;;;;;;6154602;23;20096;-86
2021/04/26 03:44:32;;;;;;;15.40;1.83;;;1.30;99.90;;;;;;6172033;23;20048;-86
2021/04/26 03:47:01;;;;;;;12.27;2.80;;;1.40;99.90;;;;;;6179685;23;20017;-86
2021/04/26 03:49:27;;;;;;;15.23;2.28;;;1.40;99.90;;;;;;6181046;23;20017;-86
2021/04/26 03:51:53;;;;;;;16.23;2.20;;;1.50;99.90;;;;;;6178894;23;20100;-86
2021/04/26 03:54:19;;;;;;;7.97;1.73;;;1.50;99.90;;;;;;6181553;23;20093;-86
2021/04/26 03:56:46;;;;;;;13.50;2.25;;;1.60;99.90;;;;;;6181933;23;20091;-86
2021/04/26 03:59:12;;;;;;;7.85;1.80;;;1.50;99.90;;;;;;6182907;23;20035;-86
2021/04/26 04:01:38;;;;;;;19.15;2.85;;;1.60;99.90;;;;;;6181865;23;20044;-85
2021/04/26 04:04:05;;;;;;;8.32;2.10;;;1.60;99.90;;;;;;6156077;23;20097;-86
2021/04/26 04:06:31;;;;;;;7.90;1.42;;;1.70;99.90;;;;;;6181137;23;20075;-87
2021/04/26 04:09:03;;;;;;;15.43;1.77;;;1.80;99.90;;;;;;6179912;23;20114;-86
2021/04/26 04:11:28;;;;;;;12.02;1.35;;;1.90;99.90;;;;;;6192218;23;20376;-86
2021/04/26 04:13:54;;;;;;;5.18;1.88;;;2.10;99.90;;;;;;6181841;23;20024;-86
2021/04/26 04:16:20;;;;;;;16.40;1.50;;;2.30;99.90;;;;;;6182335;23;20351;-86
2021/04/26 04:18:46;;;;;;;4.72;1.25;;;2.60;99.90;;;;;;6180354;23;20021;-87
2021/04/26 04:21:12;;;;;;;9.35;1.80;;;2.60;99.90;;;;;;6182658;23;20020;-86
2021/04/26 04:23:39;;;;;;;11.10;1.63;;;2.70;99.90;;;;;;6180635;23;20027;-86
2021/04/26 04:26:04;;;;;;;9.02;1.45;;;2.80;99.90;;;;;;6180766;23;20017;-86
2021/04/26 04:28:31;;;;;;;8.15;1.23;;;2.90;99.90;;;;;;6181224;23;20101;-86
2021/04/26 04:30:58;;;;;;;5.93;1.10;;;3.00;99.90;;;;;;6179950;23;20447;-87
2021/04/26 04:33:24;;;;;;;8.48;1.50;;;3.10;99.90;;;;;;6180842;23;20024;-87
2021/04/26 04:35:51;;;;;;;5.85;1.30;;;3.10;99.90;;;;;;6180094;23;20451;-87
2021/04/26 04:38:17;;;;;;;18.73;1.40;;;3.00;99.90;;;;;;6182317;23;20462;-87
2021/04/26 04:40:43;;;;;;;12.00;1.80;;;2.90;99.90;;;;;;6179932;23;20342;-86
2021/04/26 04:43:09;;;;;;;5.65;1.25;;;2.90;99.90;;;;;;6180286;23;20108;-87
2021/04/26 04:45:35;;;;;;;5.88;1.58;;;2.90;99.90;;;;;;6155824;23;20089;-86
2021/04/26 04:48:01;;;;;;;6.63;1.63;;;2.80;99.90;;;;;;6180001;23;20061;-87
2021/04/26 04:50:27;;;;;;;9.43;1.88;;;2.70;99.90;;;;;;6180769;23;20021;-87
2021/04/26 04:52:53;;;;;;;10.68;1.30;;;2.70;99.90;;;;;;6179665;23;20305;-87
2021/04/26 04:55:18;;;;;;;6.40;1.48;;;2.60;99.90;;;;;;6182369;23;20021;-86
2021/04/26 04:57:44;;;;;;;7.82;1.30;;;2.60;99.90;;;;;;6181019;23;20016;-86
2021/04/26 05:00:11;;;;;;;6.75;1.45;;;2.50;99.90;;;;;;6180177;23;20017;-87
2021/04/26 05:02:36;;;;;;;7.10;1.38;;;2.40;99.90;;;;;;6181890;23;20072;-87
2021/04/26 05:05:03;;;;;;;8.35;1.60;;;2.20;99.90;;;;;;6191240;23;20024;-87
2021/04/26 05:07:29;;;;;;;6.78;2.05;;;2.10;99.90;;;;;;6180719;23;20033;-87
2021/04/26 05:09:55;;;;;;;5.13;1.50;;;2.20;99.90;;;;;;6181038;23;20427;-86
2021/04/26 05:12:20;;;;;;;11.48;1.77;;;2.00;99.90;;;;;;6182030;23;20336;-86
2021/04/26 05:14:48;;;;;;;8.63;2.08;;;2.00;99.90;;;;;;6181218;23;20067;-86
2021/04/26 05:17:15;;;;;;;4.53;1.50;;;2.00;99.90;;;;;;6156409;23;20024;-85
2021/04/26 05:19:41;;;;;;;5.65;1.75;;;1.90;99.90;;;;;;6181477;23;20394;-87
2021/04/26 05:22:07;;;;;;;11.30;1.88;;;2.00;99.90;;;;;;6179495;23;20031;-86
2021/04/26 05:24:34;;;;;;;4.18;1.45;;;2.00;99.90;;;;;;6182414;23;20017;-86
2021/04/26 05:27:00;;;;;;;4.70;1.60;;;2.00;99.90;;;;;;6179563;23;20395;-86
2021/04/26 05:29:26;;;;;;;4.95;1.65;;;2.10;99.90;;;;;;6181987;23;20032;-87
2021/04/26 05:31:51;;;;;;;6.30;1.63;;;2.40;99.90;;;;;;6179255;23;20075;-85
2021/04/26 05:34:18;;;;;;;6.70;1.73;;;2.50;99.90;;;;;;6180542;23;20028;-86
2021/04/26 05:36:44;;;;;;;5.45;1.55;;;2.80;99.90;;;;;;6181737;23;20027;-86
2021/04/26 05:39:10;;;;;;;12.38;2.28;;;3.00;99.90;;;;;;6154648;23;20040;-86
2021/04/26 05:41:36;;;;;;;11.93;2.28;;;3.20;99.90;;;;;;6181577;23;20021;-87
2021/04/26 05:44:03;;;;;;;12.90;2.50;;;3.30;99.90;;;;;;6180658;23;20089;-87
2021/04/26 05:46:29;;;;;;;10.10;2.33;;;3.40;99.90;;;;;;6155535;23;20040;-87
2021/04/26 05:48:55;;;;;;;5.15;2.63;;;3.50;99.90;;;;;;6129659;23;20329;-86
2021/04/26 05:51:21;;;;;;;15.60;2.00;;;3.70;99.90;;;;;;6182072;23;20017;-87
2021/04/26 05:53:47;;;;;;;14.23;1.92;;;3.80;99.90;;;;;;6180780;23;20021;-86
2021/04/26 05:56:12;;;;;;;15.82;1.50;;;3.90;99.90;;;;;;6180922;23;20019;-87
2021/04/26 05:58:39;;;;;;;14.73;1.58;;;4.00;99.90;;;;;;6155015;23;20024;-86
2021/04/26 06:01:05;;;;;;;14.60;2.15;;;4.10;99.90;;;;;;6154650;23;20028;-85
2021/04/26 06:03:31;;;;;;;10.05;1.77;;;4.20;99.90;;;;;;6155464;23;20017;-86
2021/04/26 06:05:57;;;;;;;6.05;1.23;;;4.30;99.90;;;;;;6154491;23;20366;-86
2021/04/26 06:08:25;;;;;;;10.95;1.85;;;4.50;99.90;;;;;;6181832;23;20018;-87
2021/04/26 06:10:50;;;;;;;5.07;1.52;;;4.70;99.90;;;;;;6153664;23;20025;-85
2021/04/26 06:13:17;;;;;;;6.68;1.98;;;4.80;99.90;;;;;;6155152;23;20017;-86
2021/04/26 06:15:43;;;;;;;9.15;2.05;;;4.80;99.90;;;;;;6180989;23;20021;-87
2021/04/26 06:18:14;;;;;;;6.65;1.85;;;4.90;99.90;;;;;;6153856;23;20185;-87
2021/04/26 06:20:41;;;;;;;3.83;0.93;;;4.90;99.90;;;;;;6155089;23;20028;-87
2021/04/26 06:23:07;;;;;;;7.07;1.20;;;5.00;99.90;;;;;;6129247;23;20787;-87
2021/04/26 06:25:35;;;;;;;4.97;0.95;;;5.20;99.90;;;;;;6155584;23;20017;-87
2021/04/26 06:28:01;;;;;;;6.15;0.90;;;5.20;99.90;;;;;;6153635;23;20089;-88
2021/04/26 06:30:27;;;;;;;9.10;1.10;;;5.30;99.90;;;;;;6155302;23;20036;-87
2021/04/26 06:32:53;;;;;;;4.82;0.90;;;5.30;99.90;;;;;;6129826;23;20013;-88
2021/04/26 06:35:19;;;;;;;7.53;1.25;;;5.30;99.90;;;;;;6181674;23;20143;-87
2021/04/26 06:37:45;;;;;;;4.57;0.90;;;5.40;99.90;;;;;;6154781;23;20025;-87
2021/04/26 06:40:12;;;;;;;7.25;1.27;;;5.40;99.90;;;;;;6154305;23;20236;-88
2021/04/26 06:42:37;;;;;;;16.95;1.35;;;5.50;99.90;;;;;;6155129;23;20082;-87
2021/04/26 06:45:05;;;;;;;10.60;1.33;;;5.50;99.90;;;;;;6180598;23;20048;-88
2021/04/26 06:47:30;;;;;;;4.65;0.65;;;5.50;99.90;;;;;;6181425;23;20013;-87
2021/04/26 06:49:57;;;;;;;11.90;1.40;;;5.70;99.90;;;;;;6180091;23;20328;-87
2021/04/26 06:52:23;;;;;;;6.97;1.15;;;5.70;99.90;;;;;;6181017;23;20350;-87
2021/04/26 06:54:49;;;;;;;3.13;0.98;;;5.70;99.90;;;;;;6155348;23;20099;-87
2021/04/26 06:57:14;;;;;;;5.13;0.90;;;5.80;99.90;;;;;;6154036;23;20020;-87
2021/04/26 06:59:40;;;;;;;10.93;2.05;;;5.80;99.90;;;;;;6154877;23;20024;-83
2021/04/26 07:02:07;;;;;;;1.55;0.50;;;6.00;99.90;;;;;;6153613;23;20088;-84
2021/04/26 07:04:33;;;;;;;1.40;0.70;;;6.00;99.90;;;;;;6181382;23;20016;-84
2021/04/26 07:06:58;;;;;;;5.75;1.00;;;6.20;99.90;;;;;;6153246;23;20379;-85
2021/04/26 07:09:24;;;;;;;0.73;0.10;;;6.10;99.90;;;;;;6130028;23;20320;-84
2021/04/26 07:11:50;;;;;;;3.50;0.98;;;6.20;99.90;;;;;;6153494;23;20025;-83
2021/04/26 07:14:16;;;;;;;4.22;1.25;;;6.20;99.90;;;;;;6130113;23;20020;-83
2021/04/26 07:16:42;;;;;;;7.07;1.10;;;6.30;99.90;;;;;;6154892;23;20017;-83
2021/04/26 07:19:08;;;;;;;4.53;0.60;;;6.30;99.90;;;;;;6129356;23;20331;-83
2021/04/26 07:21:34;;;;;;;1.90;0.80;;;6.30;99.90;;;;;;6130342;23;20017;-84
2021/04/26 07:24:00;;;;;;;2.70;0.70;;;6.30;99.90;;;;;;6179909;23;20454;-85
2021/04/26 07:26:26;;;;;;;5.43;1.02;;;6.40;99.90;;;;;;6130910;23;20435;-85
2021/04/26 07:28:52;;;;;;;7.80;1.13;;;6.50;99.90;;;;;;6155593;23;20335;-85
2021/04/26 07:31:18;;;;;;;7.18;0.90;;;6.50;99.90;;;;;;6156870;23;20147;-85
2021/04/26 07:33:44;;;;;;;4.28;0.73;;;6.60;99.90;;;;;;6156634;23;20155;-84
2021/04/26 07:36:10;;;;;;;8.90;0.95;;;6.60;99.90;;;;;;6156039;23;20049;-84
2021/04/26 07:38:36;;;;;;;3.53;0.88;;;6.60;99.90;;;;;;6182847;23;20044;-84
2021/04/26 07:41:02;;;;;;;5.90;0.90;;;6.60;99.90;;;;;;6155468;23;20025;-84
2021/04/26 07:43:28;;;;;;;1.88;0.55;;;6.70;99.90;;;;;;6182733;23;20021;-84
2021/04/26 07:45:54;;;;;;;7.50;0.90;;;6.80;99.90;;;;;;6156034;23;20028;-84
2021/04/26 07:48:20;;;;;;;2.50;1.05;;;6.80;99.90;;;;;;6132147;23;20021;-84
2021/04/26 07:50:46;;;;;;;1.35;0.47;;;6.90;99.90;;;;;;6157551;23;20021;-84
2021/04/26 07:53:12;;;;;;;1.73;0.60;;;6.80;99.90;;;;;;6182794;23;20025;-84
2021/04/26 07:55:38;;;;;;;5.40;0.85;;;6.90;99.90;;;;;;6183032;23;20626;-83
2021/04/26 07:58:05;;;;;;;4.47;0.60;;;7.00;99.90;;;;;;6181968;23;20017;-84
2021/04/26 08:00:31;;;;;;;4.57;0.95;;;6.90;99.90;;;;;;6155930;23;20072;-84
2021/04/26 08:02:57;;;;;;;4.25;0.80;;;7.00;99.90;;;;;;6181397;23;20072;-84
2021/04/26 08:05:23;;;;;;;2.25;0.85;;;7.00;99.90;;;;;;6182008;23;20251;-85
2021/04/26 08:07:49;;;;;;;6.45;1.20;;;7.00;99.90;;;;;;6182397;23;20024;-85
2021/04/26 08:10:15;;;;;;;2.25;0.80;;;7.00;99.90;;;;;;6157123;23;20020;-85
2021/04/26 08:12:41;;;;;;;3.33;0.73;;;7.00;99.90;;;;;;6155864;23;20059;-86
2021/04/26 08:15:10;;;;;;;5.85;1.10;;;7.10;99.90;;;;;;6155627;23;20025;-86
2021/04/26 08:17:36;;;;;;;8.10;0.98;;;7.10;99.90;;;;;;6182918;23;20436;-86
2021/04/26 08:20:04;;;;;;;3.65;0.93;;;7.20;99.90;;;;;;6131031;23;20025;-86
2021/04/26 08:22:30;;;;;;;6.20;0.95;;;7.10;99.90;;;;;;6182377;23;20056;-85
2021/04/26 08:24:56;;;;;;;7.40;0.98;;;7.20;99.90;;;;;;6155066;23;20431;-86
2021/04/26 08:27:22;;;;;;;1.92;0.65;;;7.20;99.90;;;;;;6182353;23;20644;-86
2021/04/26 08:30:08;;;;;;;2.70;0.70;;;7.20;99.90;;;;;;6158997;23;20025;-85
2021/04/26 08:32:35;;;;;;;9.95;1.20;;;7.30;99.90;;;;;;6155659;23;20379;-85
2021/04/26 08:35:01;;;;;;;1.77;0.77;;;7.30;99.90;;;;;;6154830;23;20024;-86
2021/04/26 08:37:27;;;;;;;9.98;1.10;;;7.40;99.90;;;;;;6178721;23;20025;-88
2021/04/26 08:39:53;;;;;;;6.70;0.90;;;7.40;99.90;;;;;;6130715;23;20017;-86
2021/04/26 08:42:19;;;;;;;6.45;1.25;;;7.40;99.90;;;;;;6155499;23;20100;-85
2021/04/26 08:44:45;;;;;;;8.13;1.63;;;7.40;99.90;;;;;;6182160;23;20013;-84
2021/04/26 08:47:11;;;;;;;4.32;0.77;;;7.40;99.90;;;;;;6180039;23;20025;-84
2021/04/26 08:49:38;;;;;;;7.22;2.50;;;7.50;99.90;;;;;;6155899;23;20020;-87
2021/04/26 08:52:04;;;;;;;8.80;0.80;;;7.50;99.90;;;;;;6180817;23;20379;-83
2021/04/26 08:54:31;;;;;;;4.47;0.90;;;7.50;99.90;;;;;;6181818;23;20328;-85
2021/04/26 08:56:57;;;;;;;9.38;1.42;;;7.50;99.90;;;;;;6181235;23;20021;-85
2021/04/26 08:59:23;;;;;;;10.45;0.85;;;7.50;99.90;;;;;;6181622;23;20017;-85
2021/04/26 09:02:03;;;;;;;6.55;1.20;;;7.60;99.90;;;;;;6155967;23;20044;-85
2021/04/26 09:04:31;;;;;;;2.07;0.60;;;7.60;99.90;;;;;;6191832;23;20028;-85
2021/04/26 09:07:00;;;;;;;1.95;1.00;;;7.60;99.90;;;;;;6180768;23;20021;-84
2021/04/26 09:09:36;;;;;;;5.47;0.93;;;7.60;99.90;;;;;;6181251;23;20543;-83
2021/04/26 09:12:03;;;;;;;2.35;0.50;;;7.60;99.90;;;;;;6180692;23;20124;-84
2021/04/26 09:14:43;;;;;;;3.63;0.90;;;7.60;99.90;;;;;;6155397;23;20432;-84
2021/04/26 09:17:35;;;;;;;8.43;1.20;;;7.60;99.90;;;;;;6164301;23;20041;-84
2021/04/26 09:20:18;;;;;;;5.85;1.40;;;7.60;99.90;;;;;;6180904;23;20013;-83
2021/04/26 09:22:47;;;;;;;3.13;1.00;;;7.60;99.90;;;;;;6181738;23;20021;-84
2021/04/26 09:25:28;;;;;;;7.55;1.10;;;7.60;99.90;;;;;;6154439;23;20020;-84
2021/04/26 09:27:53;;;;;;;5.57;1.15;;;7.70;99.90;;;;;;6191789;23;20067;-84
2021/04/26 09:30:41;;;;;;;4.53;1.15;;;7.70;99.90;;;;;;6154437;23;20013;-84
2021/04/26 09:33:29;;;;;;;1.60;0.60;;;7.80;99.90;;;;;;6180414;23;20083;-84
2021/04/26 09:36:11;;;;;;;4.63;1.25;;;8.10;99.90;;;;;;6191563;23;20017;-84
2021/04/26 09:38:39;;;;;;;2.05;0.60;;;7.90;99.90;;;;;;6130578;23;20051;-84
2021/04/26 09:41:31;;;;;;;0.82;0.47;;;7.90;97.00;;;;;;6180381;23;20017;-84
2021/04/26 09:44:00;;;;;;;3.03;0.70;;;7.80;97.10;;;;;;6157407;23;20020;-84
2021/04/26 09:46:38;;;;;;;4.93;1.00;;;7.80;95.40;;;;;;6154663;23;20320;-84
2021/04/26 09:49:28;;;;;;;1.50;0.52;;;7.90;99.00;;;;;;6180632;23;20340;-84
2021/04/26 09:52:12;;;;;;;3.08;0.80;;;8.00;96.20;;;;;;6154110;23;20032;-84
2021/04/26 09:54:40;;;;;;;5.63;0.52;;;8.00;97.30;;;;;;6165054;23;20021;-85
2021/04/26 09:57:07;;;;;;;6.82;1.13;;;8.10;94.20;;;;;;6180275;23;20021;-85
2021/04/26 09:59:33;;;;;;;6.03;1.15;;;8.10;98.40;;;;;;6155229;23;20074;-83
2021/04/26 10:02:00;;;;;;;5.97;0.73;;;8.20;98.10;;;;;;6180683;23;20028;-83
2021/04/26 10:04:27;;;;;;;5.57;0.60;;;8.20;96.80;;;;;;6180541;23;20025;-84
2021/04/26 10:06:53;;;;;;;1.75;0.50;;;8.10;85.10;;;;;;6155057;23;20021;-84
2021/04/26 10:09:19;;;;;;;5.28;0.90;;;8.10;92.90;;;;;;6154035;23;20032;-84
2021/04/26 10:11:45;;;;;;;8.00;1.00;;;8.20;95.70;;;;;;6180763;23;20120;-84
2021/04/26 10:14:17;;;;;;;3.65;1.05;;;8.20;99.90;;;;;;6180139;23;20024;-85
2021/04/26 10:16:50;;;;;;;0.47;0.45;;;8.20;97.10;;;;;;6181001;23;20025;-84
2021/04/26 10:19:16;;;;;;;4.70;0.63;;;8.10;96.50;;;;;;6163708;23;20017;-84
2021/04/26 10:21:54;;;;;;;2.60;0.57;;;8.10;96.80;;;;;;6181100;23;20087;-84
2021/04/26 10:24:25;;;;;;;4.07;0.90;;;8.20;99.50;;;;;;6163735;23;20048;-84
2021/04/26 10:26:56;;;;;;;1.83;0.52;;;8.30;94.20;;;;;;6154375;23;20095;-84
2021/04/26 10:29:33;;;;;;;3.42;0.70;;;8.30;90.70;;;;;;6180165;23;20091;-84
2021/04/26 10:32:05;;;;;;;8.40;0.52;;;8.20;95.70;;;;;;6154355;23;20017;-84
2021/04/26 10:34:36;;;;;;;1.65;0.63;;;8.30;95.70;;;;;;6162588;23;20020;-89
2021/04/26 10:37:19;;;;;;;4.97;0.80;;;8.40;90.10;;;;;;6180882;23;20052;-86
2021/04/26 10:39:59;;;;;;;3.88;0.80;;;8.40;92.40;;;;;;6190895;23;20092;-85
2021/04/26 10:42:47;;;;;;;2.42;0.60;;;8.40;80.90;;;;;;6153172;23;20044;-85
2021/04/26 10:45:13;;;;;;;2.83;0.45;;;8.40;89.50;;;;;;6179435;23;20017;-85
2021/04/26 10:47:43;;;;;;;4.80;0.60;;;8.40;92.60;;;;;;6180531;23;20390;-85
2021/04/26 10:50:09;;;;;;;2.03;0.75;;;8.40;92.30;;;;;;6162090;23;20084;-85
2021/04/26 10:52:38;;;;;;;1.52;0.50;;;8.50;82.60;;;;;;6155015;23;20482;-85
2021/04/26 10:55:31;;;;;;;3.40;0.50;;;8.60;88.50;;;;;;6180587;23;20020;-85
2021/04/26 10:58:01;;;;;;;1.95;0.47;;;8.50;90.90;;;;;;6180859;23;20092;-85
2021/04/26 11:00:27;;;;;;;1.92;0.50;;;8.60;89.30;;;;;;6179449;23;20438;-85
2021/04/26 11:02:58;;;;;;;4.03;0.60;;;8.60;85.00;;;;;;6154188;23;20066;-85
2021/04/26 11:05:29;;;;;;;4.30;0.50;;;8.60;79.90;;;;;;6179712;23;20017;-85
2021/04/26 11:10:30;;;;;;;0.77;0.40;;;8.80;88.60;;;;;;6153574;23;20490;-84
2021/04/26 11:12:57;;;;;;;3.97;0.65;;;8.80;74.70;;;;;;6154845;23;20013;-85
2021/04/26 11:15:24;;;;;;;2.42;0.35;;;8.80;83.60;;;;;;6179514;23;20091;-85
2021/04/26 11:17:51;;;;;;;3.88;0.60;;;8.70;88.80;;;;;;6176572;23;20021;-84
2021/04/26 11:20:23;;;;;;;1.35;0.68;;;8.70;90.10;;;;;;6179438;23;20443;-85
2021/04/26 11:22:53;;;;;;;5.05;0.57;;;8.70;82.70;;;;;;6153353;23;20017;-85
2021/04/26 11:25:36;;;;;;;;;;;8.70;82.30;;;;;;6104574;23;20320;-85
2021/04/26 11:28:03;;;;;;;0.35;0.13;;;8.70;90.00;;;;;;6153835;23;19935;-85
2021/04/26 11:30:34;;;;;;;1.30;0.50;;;8.70;83.00;;;;;;6179941;23;20435;-84
2021/04/26 11:33:04;;;;;;;2.95;0.57;;;8.60;82.30;;;;;;6189534;23;20013;-85
2021/04/26 11:35:31;;;;;;;2.80;0.70;;;8.60;87.80;;;;;;6179483;23;20013;-85
2021/04/26 11:37:58;;;;;;;3.00;0.40;;;8.80;87.40;;;;;;6154364;23;20021;-85
2021/04/26 11:40:27;;;;;;;1.45;0.68;;;8.80;87.30;;;;;;6179567;23;20047;-85
2021/04/26 11:43:08;;;;;;;1.85;0.52;;;8.90;89.70;;;;;;6179711;23;20040;-85
2021/04/26 11:45:36;;;;;;;0.85;0.30;;;8.80;81.70;;;;;;6189395;23;20052;-85
2021/04/26 11:48:02;;;;;;;1.42;0.50;;;8.80;79.40;;;;;;6180173;23;20029;-85
2021/04/26 11:50:28;;;;;;;4.47;0.47;;;8.80;81.80;;;;;;6180046;23;20079;-85
2021/04/26 11:52:54;;;;;;;2.42;0.47;;;8.80;81.40;;;;;;6154085;23;20017;-85
2021/04/26 11:55:23;;;;;;;1.58;0.50;;;8.80;86.80;;;;;;6152999;23;20021;-85
2021/04/26 11:57:51;;;;;;;3.33;0.75;;;8.80;91.70;;;;;;6154508;23;20013;-85
2021/04/26 12:00:32;;;;;;;1.75;0.15;;;8.90;84.30;;;;;;6153068;23;20414;-85
2021/04/26 12:03:02;;;;;;;;;;;8.90;82.30;;;;;;6179039;23;20089;-84
2021/04/26 12:05:28;;;;;;;1.98;0.50;;;9.00;88.10;;;;;;6179282;23;19916;-85
2021/04/26 12:07:55;;;;;;;1.77;0.55;;;9.00;85.90;;;;;;6152218;23;20017;-86
2021/04/26 12:10:24;;;;;;;5.18;0.88;;;9.10;86.10;;;;;;6178040;23;20347;-85
2021/04/26 12:12:54;;;;;;;4.23;0.80;;;9.00;81.50;;;;;;6179110;23;20024;-86
2021/04/26 12:15:22;;;;;;;1.80;0.50;;;9.00;84.60;;;;;;6154393;23;20024;-85
2021/04/26 12:18:02;;;;;;;0.40;0.40;;;9.10;90.50;;;;;;6155533;23;20088;-86
2021/04/26 12:20:40;;;;;;;3.22;0.68;;;8.90;88.70;;;;;;6188922;23;20020;-85
2021/04/26 12:23:18;;;;;;;5.78;0.73;;;8.90;89.20;;;;;;6181305;23;20730;-85
2021/04/26 12:25:45;;;;;;;3.17;0.60;;;9.00;90.50;;;;;;6192426;23;20116;-88
2021/04/26 12:28:13;;;;;;;4.65;0.98;;;9.10;89.80;;;;;;6181927;23;20064;-87
2021/04/26 12:30:44;;;;;;;3.72;0.70;;;9.20;92.70;;;;;;6179867;23;20104;-87
2021/04/26 12:33:31;;;;;;;1.45;0.63;;;9.30;94.10;;;;;;6163729;23;20513;-87
2021/04/26 12:35:59;;;;;;;9.90;1.20;;;9.40;94.40;;;;;;6182166;23;20089;-87
2021/04/26 12:38:36;;;;;;;1.65;0.55;;;9.70;91.20;;;;;;6180965;23;20024;-88
2021/04/26 12:41:03;;;;;;;2.72;0.70;;;9.70;92.50;;;;;;6191818;23;20032;-88
2021/04/26 12:43:43;;;;;;;1.75;0.68;;;9.80;90.70;;;;;;6180577;23;20041;-88
2021/04/26 12:46:15;;;;;;;2.40;0.63;;;9.80;92.40;;;;;;6155421;23;20017;-88
2021/04/26 12:48:42;;;;;;;2.72;0.82;;;9.80;93.30;;;;;;6130271;23;20013;-87
2021/04/26 12:51:09;;;;;;;1.42;0.68;;;9.80;95.40;;;;;;6181702;23;20051;-87
2021/04/26 12:53:42;;;;;;;3.15;0.55;;;9.80;95.00;;;;;;6154189;23;20048;-87
2021/04/26 12:56:17;;;;;;;2.67;0.45;;;9.80;94.50;;;;;;6191862;23;20017;-87
2021/04/26 12:58:49;;;;;;;8.07;0.82;;;9.60;94.50;;;;;;6165444;23;20024;-87
2021/04/26 13:01:16;;;;;;;4.35;1.08;;;9.50;94.60;;;;;;6181671;23;20088;-87
2021/04/26 13:03:54;;;;;;;2.53;0.50;;;9.70;93.90;;;;;;6154092;23;20076;-86
2021/04/26 13:06:31;;;;;;;4.03;0.68;;;9.80;93.30;;;;;;6180974;23;20017;-86